Cliff Hatfield Memorial Airport


Codes: KCLR/CLR
Name: Cliff Hatfield Memorial Airport
City: Calipatria
Country: United States
Elevation: -182 ft.
Wikipedia:

Photos at Cliff Hatfield Memorial Airport


   Photos courtesy of SpottingLog. You can add your own sightings and photos by signing up for a free trial today.



No photos found.

Weather at Cliff Hatfield Memorial Airport


Time (UTC)DescriptionTempratureWindCloud coverageVisibilityPressureHumidity
16-Jun-2024 00:00Clear Sky44°C0 mph, W0%10000m999hPa13%
16-Jun-2024 03:00Clear Sky41°C13 mph, W0%10000m999hPa15%
16-Jun-2024 06:00Clear Sky34°C4 mph, SE0%10000m1001hPa21%
16-Jun-2024 09:00Clear Sky26°C2 mph, E0%10000m1001hPa31%
16-Jun-2024 12:00Clear Sky24°C2 mph, NE0%10000m1002hPa33%
16-Jun-2024 15:00Clear Sky28°C2 mph, NE0%10000m1003hPa25%
16-Jun-2024 18:00Clear Sky34°C4 mph, NW0%10000m1002hPa16%
16-Jun-2024 21:00Clear Sky38°C11 mph, W0%10000m999hPa13%
17-Jun-2024 00:00Clear Sky38°C18 mph, W0%10000m997hPa13%
17-Jun-2024 03:00Clear Sky31°C16 mph, W0%10000m997hPa22%
17-Jun-2024 06:00Clear Sky25°C7 mph, SW0%10000m999hPa36%
17-Jun-2024 09:00Clear Sky23°C4 mph, W0%10000m999hPa41%
17-Jun-2024 12:00Clear Sky22°C2 mph, W0%10000m999hPa42%
17-Jun-2024 15:00Clear Sky26°C4 mph, W0%10000m1000hPa30%
17-Jun-2024 18:00Clear Sky31°C2 mph, W0%10000m1000hPa21%
17-Jun-2024 21:00Clear Sky36°C2 mph, NW0%10000m997hPa16%
18-Jun-2024 00:00Clear Sky37°C16 mph, W0%10000m994hPa16%
18-Jun-2024 03:00Clear Sky29°C16 mph, W0%10000m996hPa29%
18-Jun-2024 06:00Clear Sky24°C4 mph, SW0%10000m999hPa45%
18-Jun-2024 09:00Clear Sky22°C4 mph, NW0%10000m1000hPa48%
18-Jun-2024 12:00Clear Sky22°C4 mph, SW0%10000m1001hPa49%
18-Jun-2024 15:00Clear Sky27°C4 mph, W0%10000m1003hPa30%
18-Jun-2024 18:00Clear Sky34°C7 mph, N0%10000m1003hPa14%
18-Jun-2024 21:00Clear Sky35°C9 mph, NW0%10000m1001hPa13%
19-Jun-2024 00:00Clear Sky37°C7 mph, W0%10000m999hPa12%
19-Jun-2024 03:00Clear Sky31°C2 mph, NW0%10000m999hPa16%
19-Jun-2024 06:00Clear Sky27°C7 mph, W0%10000m1002hPa33%
19-Jun-2024 09:00Clear Sky25°C7 mph, SE0%10000m1002hPa48%
19-Jun-2024 12:00Clear Sky23°C7 mph, SE0%10000m1003hPa58%
19-Jun-2024 15:00Clear Sky27°C9 mph, SE0%10000m1005hPa49%
19-Jun-2024 18:00Clear Sky33°C2 mph, SE0%10000m1004hPa30%
19-Jun-2024 21:00Clear Sky35°C0 mph, W0%10000m1002hPa24%
20-Jun-2024 00:00Clear Sky36°C2 mph, SW0%10000m999hPa20%
20-Jun-2024 03:00Clear Sky32°C11 mph, SW0%10000m1000hPa25%
20-Jun-2024 06:00Clear Sky27°C4 mph, SW0%10000m1002hPa34%
20-Jun-2024 09:00Clear Sky25°C2 mph, W0%10000m1002hPa39%
20-Jun-2024 12:00Clear Sky24°C2 mph, NW0%10000m1003hPa43%
20-Jun-2024 15:00Clear Sky27°C0 mph, NW0%10000m1005hPa34%
20-Jun-2024 18:00Clear Sky32°C4 mph, NW0%10000m1004hPa23%
20-Jun-2024 21:00Clear Sky35°C4 mph, NW0%10000m1001hPa19%